< < Back
Terminal Aerodrome Forecast


Current Version              Previous Versions:   1  2  3  4  5  6  7  8  9  

Terminal Aerodrome Forecast

839
FTUS42 KMLB 031509 AAA
TAFMCO
TAF AMD
KMCO 031509Z 0315/0412 24005KT P6SM SCT030
     FM032000 12008KT P6SM VCTS SCT045CB SCT150
     FM040000 14005KT P6SM FEW050 SCT080 BKN250
     FM040600 18003KT P6SM SCT250=



Latest METAR

716
SAUS70 KWBC 032300 RRE
MTRMCO
METAR KMCO 032253Z 15011KT 10SM TS FEW050CB SCT120 BKN160 28/21 A3007
RMK AO2 SLP181 OCNL LTGICCG S AND W TS S AND W MOV W
T02780206


USA.gov is the U.S. government's official web portal to all federal, state and local government web resources and services.